Time,TemperatureF,DewpointF,PressureIn,WindDirection,WindDirectionDegrees,WindSpeedMPH,WindSpeedGustMPH,Humidity,HourlyPrecipIn,Conditions,Clouds,dailyrainin,SoftwareType,DateUTC
2013-03-11 00:00:00,57.7,34.9,29.93,SSE,147,6.0,15.0,42,0.00,,,0.00,meteohub,2013-03-11 04:00:00,
2013-03-11 00:02:00,57.7,34.9,29.94,South,170,10.0,15.0,42,0.00,,,0.00,meteohub,2013-03-11 04:02:00,
2013-03-11 00:04:00,57.7,34.9,29.94,SSW,208,4.0,15.0,42,0.00,,,0.00,meteohub,2013-03-11 04:04:00,
2013-03-11 00:09:00,57.7,34.9,29.94,SW,219,7.0,14.0,42,0.00,,,0.00,meteohub,2013-03-11 04:09:00,
2013-03-11 00:15:00,57.9,34.3,29.93,SSW,199,4.0,17.0,41,0.00,,,0.00,meteohub,2013-03-11 04:15:00,
2013-03-11 00:20:00,57.9,34.3,29.93,SSW,202,4.0,17.0,41,0.00,,,0.00,meteohub,2013-03-11 04:20:00,
2013-03-11 00:25:00,57.7,34.2,29.93,SSW,198,5.0,12.0,41,0.00,,,0.00,meteohub,2013-03-11 04:25:00,
2013-03-11 00:30:00,57.7,34.2,29.94,SW,227,4.0,12.0,41,0.00,,,0.00,meteohub,2013-03-11 04:30:00,
2013-03-11 00:35:00,57.7,34.2,29.93,SSW,197,6.0,15.0,41,0.00,,,0.00,meteohub,2013-03-11 04:35:00,
2013-03-11 00:41:00,57.7,34.2,29.94,SSW,192,9.0,15.0,41,0.00,,,0.00,meteohub,2013-03-11 04:41:00,
2013-03-11 00:47:00,57.7,34.9,29.94,SW,215,5.0,13.0,42,0.00,,,0.00,meteohub,2013-03-11 04:47:00,
2013-03-11 00:52:00,57.6,34.7,29.94,SSW,209,4.0,11.0,42,0.00,,,0.00,meteohub,2013-03-11 04:52:00,
2013-03-11 00:57:00,57.6,34.7,29.94,SW,224,3.0,11.0,42,0.00,,,0.00,meteohub,2013-03-11 04:57:00,
2013-03-11 01:02:00,57.6,34.7,29.94,SSW,205,6.0,9.0,42,0.00,,,0.00,meteohub,2013-03-11 05:02:00,
2013-03-11 01:07:00,57.6,34.7,29.94,SSW,196,5.0,11.0,42,0.00,,,0.00,meteohub,2013-03-11 05:07:00,
2013-03-11 01:12:00,57.4,34.5,29.93,SW,221,7.0,11.0,42,0.00,,,0.00,meteohub,2013-03-11 05:12:00,
2013-03-11 01:18:00,57.4,34.5,29.93,SSW,192,2.0,11.0,42,0.00,,,0.00,meteohub,2013-03-11 05:18:00,
2013-03-11 01:23:00,57.2,34.3,29.92,SSW,198,2.0,9.0,42,0.00,,,0.00,meteohub,2013-03-11 05:23:00,
2013-03-11 01:28:00,57.0,34.7,29.91,SSW,204,1.0,9.0,43,0.00,,,0.00,meteohub,2013-03-11 05:28:00,
2013-03-11 01:33:00,57.0,34.7,29.91,SW,222,5.0,10.0,43,0.00,,,0.00,meteohub,2013-03-11 05:33:00,
2013-03-11 01:39:00,56.8,34.5,29.91,SSE,153,6.0,10.0,43,0.00,,,0.00,meteohub,2013-03-11 05:39:00,
2013-03-11 01:44:00,56.8,34.5,29.92,SW,217,3.0,10.0,43,0.00,,,0.00,meteohub,2013-03-11 05:44:00,
2013-03-11 01:49:00,56.8,34.5,29.92,South,190,2.0,10.0,43,0.00,,,0.00,meteohub,2013-03-11 05:49:00,
2013-03-11 01:54:00,56.8,34.5,29.93,South,185,9.0,10.0,43,0.00,,,0.00,meteohub,2013-03-11 05:54:00,
2013-03-11 02:00:00,56.8,34.5,29.93,SSW,205,6.0,10.0,43,0.00,,,0.00,meteohub,2013-03-11 06:00:00,
2013-03-11 02:05:00,56.8,34.5,29.93,SW,216,3.0,10.0,43,0.00,,,0.00,meteohub,2013-03-11 06:05:00,
2013-03-11 02:10:00,56.7,34.3,29.92,SW,224,10.0,10.0,43,0.00,,,0.00,meteohub,2013-03-11 06:10:00,
2013-03-11 02:15:00,56.7,35.1,29.92,SW,220,4.0,10.0,44,0.00,,,0.00,meteohub,2013-03-11 06:15:00,
2013-03-11 02:21:00,56.5,34.3,29.92,South,182,3.0,10.0,43,0.00,,,0.00,meteohub,2013-03-11 06:21:00,
2013-03-11 02:26:00,56.5,34.9,29.92,SW,225,4.0,10.0,44,0.00,,,0.00,meteohub,2013-03-11 06:26:00,
2013-03-11 02:31:00,56.3,34.7,29.91,SW,229,1.0,9.0,44,0.00,,,0.00,meteohub,2013-03-11 06:31:00,
2013-03-11 02:37:00,56.3,34.7,29.92,SW,219,3.0,9.0,44,0.00,,,0.00,meteohub,2013-03-11 06:37:00,
2013-03-11 02:42:00,56.3,34.7,29.92,SSE,159,2.0,9.0,44,0.00,,,0.00,meteohub,2013-03-11 06:42:00,
2013-03-11 02:47:00,56.1,34.5,29.92,South,182,2.0,9.0,44,0.00,,,0.00,meteohub,2013-03-11 06:47:00,
2013-03-11 02:52:00,55.9,34.9,29.92,South,171,4.0,9.0,45,0.00,,,0.00,meteohub,2013-03-11 06:52:00,
2013-03-11 02:57:00,56.1,34.5,29.93,South,169,5.0,12.0,44,0.00,,,0.00,meteohub,2013-03-11 06:57:00,
2013-03-11 03:02:00,55.9,34.3,29.92,SSW,213,4.0,12.0,44,0.00,,,0.00,meteohub,2013-03-11 07:02:00,
2013-03-11 03:07:00,55.9,34.3,29.92,South,177,5.0,12.0,44,0.00,,,0.00,meteohub,2013-03-11 07:07:00,
2013-03-11 03:12:00,55.9,34.9,29.91,South,181,2.0,7.0,45,0.00,,,0.00,meteohub,2013-03-11 07:12:00,
2013-03-11 03:17:00,55.8,34.7,29.92,SW,216,2.0,7.0,45,0.00,,,0.00,meteohub,2013-03-11 07:17:00,
2013-03-11 03:23:00,55.6,34.5,29.91,SSW,193,1.0,6.0,45,0.00,,,0.00,meteohub,2013-03-11 07:23:00,
2013-03-11 03:28:00,55.4,34.9,29.91,South,180,0.0,6.0,46,0.00,,,0.00,meteohub,2013-03-11 07:28:00,
2013-03-11 03:33:00,55.2,34.9,29.91,SSW,193,1.0,6.0,46,0.00,,,0.00,meteohub,2013-03-11 07:33:00,
2013-03-11 03:38:00,55.0,34.7,29.91,SW,216,3.0,5.0,46,0.00,,,0.00,meteohub,2013-03-11 07:38:00,
2013-03-11 03:43:00,55.0,34.7,29.90,SSW,202,0.0,5.0,46,0.00,,,0.00,meteohub,2013-03-11 07:43:00,
2013-03-11 03:49:00,54.9,35.1,29.90,SSW,199,2.0,5.0,47,0.00,,,0.00,meteohub,2013-03-11 07:49:00,
2013-03-11 03:54:00,55.0,34.7,29.90,SSW,199,0.0,7.0,46,0.00,,,0.00,meteohub,2013-03-11 07:54:00,
2013-03-11 03:59:00,54.9,34.5,29.89,SSW,200,0.0,7.0,46,0.00,,,0.00,meteohub,2013-03-11 07:59:00,
2013-03-11 04:04:00,54.7,34.9,29.89,South,191,0.0,7.0,47,0.00,,,0.00,meteohub,2013-03-11 08:04:00,
2013-03-11 04:10:00,54.9,34.5,29.89,SE,142,0.0,7.0,46,0.00,,,0.00,meteohub,2013-03-11 08:10:00,
2013-03-11 04:15:00,54.9,34.5,29.89,SSW,205,0.0,5.0,46,0.00,,,0.00,meteohub,2013-03-11 08:15:00,
2013-03-11 04:20:00,54.9,34.5,29.89,South,180,0.0,5.0,46,0.00,,,0.00,meteohub,2013-03-11 08:20:00,
2013-03-11 04:25:00,54.9,35.1,29.89,SSW,208,0.0,4.0,47,0.00,,,0.00,meteohub,2013-03-11 08:25:00,
2013-03-11 04:32:00,54.5,35.2,29.89,SSW,208,0.0,6.0,48,0.00,,,0.00,meteohub,2013-03-11 08:32:00,
2013-03-11 04:37:00,54.0,34.7,29.88,SSE,166,0.0,6.0,48,0.00,,,0.00,meteohub,2013-03-11 08:37:00,
2013-03-11 04:42:00,53.8,35.1,29.87,SSE,166,0.0,3.0,49,0.00,,,0.00,meteohub,2013-03-11 08:42:00,
2013-03-11 04:47:00,53.8,35.1,29.89,SSW,209,2.0,6.0,49,0.00,,,0.00,meteohub,2013-03-11 08:47:00,
2013-03-11 04:52:00,53.8,35.6,29.89,SW,215,0.0,6.0,50,0.00,,,0.00,meteohub,2013-03-11 08:52:00,
2013-03-11 04:57:00,53.8,35.1,29.89,SSW,207,0.0,6.0,49,0.00,,,0.00,meteohub,2013-03-11 08:57:00,
2013-03-11 05:02:00,53.8,35.1,29.89,SSW,198,4.0,6.0,49,0.00,,,0.00,meteohub,2013-03-11 09:02:00,
2013-03-11 05:07:00,54.0,34.7,29.88,SSW,210,5.0,6.0,48,0.00,,,0.00,meteohub,2013-03-11 09:07:00,
2013-03-11 05:12:00,54.1,34.9,29.88,SSW,210,0.0,6.0,48,0.00,,,0.00,meteohub,2013-03-11 09:12:00,
2013-03-11 05:17:00,54.0,34.7,29.88,SSW,198,2.0,5.0,48,0.00,,,0.00,meteohub,2013-03-11 09:17:00,
2013-03-11 05:22:00,53.8,35.1,29.88,SSW,211,4.0,5.0,49,0.00,,,0.00,meteohub,2013-03-11 09:22:00,
2013-03-11 05:27:00,53.4,35.8,29.86,East,93,4.0,8.0,51,0.00,,,0.00,meteohub,2013-03-11 09:27:00,
2013-03-11 05:32:00,53.8,35.1,29.85,ENE,73,1.0,8.0,49,0.00,,,0.00,meteohub,2013-03-11 09:32:00,
2013-03-11 05:37:00,53.8,35.1,29.88,SW,215,0.0,6.0,49,0.00,,,0.00,meteohub,2013-03-11 09:37:00,
2013-03-11 05:42:00,53.8,35.6,29.89,SSW,207,4.0,6.0,50,0.00,,,0.00,meteohub,2013-03-11 09:42:00,
2013-03-11 05:47:00,53.8,35.6,29.88,SW,217,3.0,8.0,50,0.00,,,0.00,meteohub,2013-03-11 09:47:00,
2013-03-11 05:53:00,53.8,35.6,29.88,SW,221,1.0,8.0,50,0.00,,,0.00,meteohub,2013-03-11 09:53:00,
2013-03-11 05:58:00,53.4,35.2,29.88,South,190,2.0,8.0,50,0.00,,,0.00,meteohub,2013-03-11 09:58:00,
2013-03-11 06:03:00,53.6,35.4,29.86,ESE,105,2.0,8.0,50,0.00,,,0.00,meteohub,2013-03-11 10:03:00,
2013-03-11 06:08:00,53.2,37.0,29.89,SW,233,0.0,5.0,54,0.00,,,0.00,meteohub,2013-03-11 10:08:00,
2013-03-11 06:13:00,52.9,37.6,29.88,SW,234,0.0,5.0,56,0.00,,,0.00,meteohub,2013-03-11 10:13:00,
2013-03-11 06:19:00,52.3,37.0,29.89,SW,234,4.0,5.0,56,0.00,,,0.00,meteohub,2013-03-11 10:19:00,
2013-03-11 06:24:00,52.0,37.6,29.89,SSW,206,0.0,4.0,58,0.00,,,0.00,meteohub,2013-03-11 10:24:00,
2013-03-11 06:29:00,51.3,37.4,29.89,SSW,206,0.0,4.0,59,0.00,,,0.00,meteohub,2013-03-11 10:29:00,
2013-03-11 06:35:00,51.1,37.2,29.88,SSW,206,0.0,4.0,59,0.00,,,0.00,meteohub,2013-03-11 10:35:00,
2013-03-11 06:40:00,50.9,38.3,29.88,SSW,206,0.0,4.0,62,0.00,,,0.00,meteohub,2013-03-11 10:40:00,
2013-03-11 06:45:00,50.7,36.5,29.89,South,185,0.0,3.0,58,0.00,,,0.00,meteohub,2013-03-11 10:45:00,
2013-03-11 06:50:00,51.3,37.0,29.89,SSW,201,0.0,3.0,58,0.00,,,0.00,meteohub,2013-03-11 10:50:00,
2013-03-11 06:56:00,51.4,35.8,29.89,South,189,4.0,5.0,55,0.00,,,0.00,meteohub,2013-03-11 10:56:00,
2013-03-11 07:01:00,52.3,35.8,29.89,WSW,241,5.0,5.0,53,0.00,,,0.00,meteohub,2013-03-11 11:01:00,
2013-03-11 07:06:00,52.7,36.0,29.89,SSW,213,6.0,9.0,53,0.00,,,0.00,meteohub,2013-03-11 11:06:00,
2013-03-11 07:11:00,53.1,35.4,29.89,SSW,194,3.0,9.0,51,0.00,,,0.00,meteohub,2013-03-11 11:11:00,
2013-03-11 07:16:00,53.4,35.2,29.89,SSW,200,6.0,8.0,50,0.00,,,0.00,meteohub,2013-03-11 11:16:00,
2013-03-11 07:22:00,53.6,34.9,29.90,SSW,193,4.0,11.0,49,0.00,,,0.00,meteohub,2013-03-11 11:22:00,
2013-03-11 07:27:00,53.6,34.9,29.90,SSW,200,1.0,11.0,49,0.00,,,0.00,meteohub,2013-03-11 11:27:00,
2013-03-11 07:32:00,53.6,34.9,29.90,SSW,200,1.0,11.0,49,0.00,,,0.00,meteohub,2013-03-11 11:32:00,
2013-03-11 07:37:00,53.6,34.9,29.89,SSW,198,2.0,8.0,49,0.00,,,0.00,meteohub,2013-03-11 11:37:00,
2013-03-11 07:42:00,53.2,37.0,29.90,WSW,252,2.0,7.0,54,0.00,,,0.00,meteohub,2013-03-11 11:42:00,
2013-03-11 07:48:00,53.1,36.0,29.91,SSW,210,4.0,7.0,52,0.00,,,0.00,meteohub,2013-03-11 11:48:00,
2013-03-11 07:53:00,53.1,36.0,29.90,SSW,212,4.0,7.0,52,0.00,,,0.00,meteohub,2013-03-11 11:53:00,
2013-03-11 07:58:00,53.1,36.9,29.89,SSW,213,4.0,9.0,54,0.00,,,0.00,meteohub,2013-03-11 11:58:00,
2013-03-11 08:03:00,52.5,37.8,29.88,SSW,206,2.0,9.0,57,0.00,,,0.00,meteohub,2013-03-11 12:03:00,
2013-03-11 08:08:00,52.2,38.3,29.89,SSW,200,6.0,8.0,59,0.00,,,0.00,meteohub,2013-03-11 12:08:00,
2013-03-11 08:13:00,51.8,37.9,29.89,SSW,208,6.0,10.0,59,0.00,,,0.00,meteohub,2013-03-11 12:13:00,
2013-03-11 08:18:00,51.6,37.8,29.90,SSW,203,5.0,10.0,59,0.00,,,0.00,meteohub,2013-03-11 12:18:00,
2013-03-11 08:24:00,51.6,37.8,29.89,SSW,209,7.0,10.0,59,0.00,,,0.00,meteohub,2013-03-11 12:24:00,
2013-03-11 08:29:00,52.0,37.2,29.89,South,176,9.0,9.0,57,0.00,,,0.00,meteohub,2013-03-11 12:29:00,
2013-03-11 08:34:00,52.2,37.4,29.90,SSW,208,4.0,10.0,57,0.00,,,0.00,meteohub,2013-03-11 12:34:00,
2013-03-11 08:40:00,52.2,36.9,29.89,SSW,207,5.0,10.0,56,0.00,,,0.00,meteohub,2013-03-11 12:40:00,
2013-03-11 08:45:00,52.3,37.0,29.89,SSW,201,4.0,9.0,56,0.00,,,0.00,meteohub,2013-03-11 12:45:00,
2013-03-11 08:51:00,52.2,36.9,29.89,SSW,200,3.0,7.0,56,0.00,,,0.00,meteohub,2013-03-11 12:51:00,
2013-03-11 08:56:00,52.2,37.4,29.90,SW,226,6.0,7.0,57,0.00,,,0.00,meteohub,2013-03-11 12:56:00,
2013-03-11 09:01:00,52.2,37.4,29.90,SSW,192,4.0,7.0,57,0.00,,,0.00,meteohub,2013-03-11 13:01:00,
2013-03-11 09:06:00,52.2,37.4,29.91,SSW,202,6.0,7.0,57,0.00,,,0.00,meteohub,2013-03-11 13:06:00,
2013-03-11 09:12:00,52.2,36.9,29.90,SW,225,1.0,7.0,56,0.00,,,0.00,meteohub,2013-03-11 13:12:00,
2013-03-11 09:17:00,52.2,37.4,29.90,South,181,0.0,7.0,57,0.00,,,0.00,meteohub,2013-03-11 13:17:00,
2013-03-11 09:22:00,52.2,37.4,29.91,South,188,2.0,7.0,57,0.00,,,0.00,meteohub,2013-03-11 13:22:00,
2013-03-11 09:28:00,52.0,37.2,29.91,SW,231,3.0,7.0,57,0.00,,,0.00,meteohub,2013-03-11 13:28:00,
2013-03-11 09:33:00,52.0,37.6,29.90,SSW,193,0.0,6.0,58,0.00,,,0.00,meteohub,2013-03-11 13:33:00,
2013-03-11 09:38:00,52.2,37.4,29.90,SSW,196,4.0,7.0,57,0.00,,,0.00,meteohub,2013-03-11 13:38:00,
2013-03-11 09:43:00,52.2,36.9,29.90,SSW,194,3.0,9.0,56,0.00,,,0.00,meteohub,2013-03-11 13:43:00,
2013-03-11 09:49:00,52.3,37.0,29.90,SSW,199,4.0,9.0,56,0.00,,,0.00,meteohub,2013-03-11 13:49:00,
2013-03-11 09:54:00,52.3,36.7,29.89,South,191,3.0,9.0,55,0.00,,,0.00,meteohub,2013-03-11 13:54:00,
2013-03-11 09:59:00,52.5,36.3,29.89,SSW,193,3.0,8.0,54,0.00,,,0.00,meteohub,2013-03-11 13:59:00,
2013-03-11 10:05:00,52.9,36.1,29.89,SW,229,6.0,8.0,53,0.00,,,0.00,meteohub,2013-03-11 14:05:00,
2013-03-11 10:10:00,53.1,36.3,29.88,South,190,1.0,6.0,53,0.00,,,0.00,meteohub,2013-03-11 14:10:00,
2013-03-11 10:15:00,53.2,36.1,29.88,SSW,211,2.0,6.0,52,0.00,,,0.00,meteohub,2013-03-11 14:15:00,
2013-03-11 10:20:00,53.4,35.8,29.88,SSW,208,0.0,6.0,51,0.00,,,0.00,meteohub,2013-03-11 14:20:00,
2013-03-11 10:26:00,53.6,36.3,29.88,South,188,3.0,5.0,52,0.00,,,0.00,meteohub,2013-03-11 14:26:00,
2013-03-11 10:31:00,53.8,36.1,29.88,SSW,210,6.0,6.0,51,0.00,,,0.00,meteohub,2013-03-11 14:31:00,
2013-03-11 10:37:00,54.0,35.8,29.84,SE,128,2.0,8.0,50,0.00,,,0.00,meteohub,2013-03-11 14:37:00,
2013-03-11 10:42:00,54.1,36.0,29.86,West,265,1.0,8.0,50,0.00,,,0.00,meteohub,2013-03-11 14:42:00,
2013-03-11 10:47:00,54.3,35.6,29.87,SSW,213,1.0,9.0,49,0.00,,,0.00,meteohub,2013-03-11 14:47:00,
2013-03-11 10:52:00,54.3,35.6,29.87,South,190,6.0,9.0,49,0.00,,,0.00,meteohub,2013-03-11 14:52:00,
2013-03-11 10:57:00,54.5,35.8,29.87,South,186,2.0,9.0,49,0.00,,,0.00,meteohub,2013-03-11 14:57:00,
2013-03-11 11:02:00,54.7,36.0,29.87,SW,215,1.0,7.0,49,0.00,,,0.00,meteohub,2013-03-11 15:02:00,
2013-03-11 11:07:00,54.9,35.6,29.86,SSW,202,7.0,10.0,48,0.00,,,0.00,meteohub,2013-03-11 15:07:00,
2013-03-11 11:12:00,55.0,35.8,29.86,South,185,3.0,10.0,48,0.00,,,0.00,meteohub,2013-03-11 15:12:00,
2013-03-11 11:17:00,55.0,35.8,29.86,SSW,212,5.0,11.0,48,0.00,,,0.00,meteohub,2013-03-11 15:17:00,
2013-03-11 11:23:00,55.0,35.8,29.85,SSW,200,3.0,11.0,48,0.00,,,0.00,meteohub,2013-03-11 15:23:00,
2013-03-11 11:28:00,55.2,36.0,29.85,SE,144,7.0,11.0,48,0.00,,,0.00,meteohub,2013-03-11 15:28:00,
2013-03-11 11:33:00,55.2,36.0,29.85,SW,227,5.0,10.0,48,0.00,,,0.00,meteohub,2013-03-11 15:33:00,
2013-03-11 11:38:00,55.4,35.4,29.85,SSW,213,4.0,10.0,47,0.00,,,0.00,meteohub,2013-03-11 15:38:00,
2013-03-11 11:44:00,55.4,35.4,29.84,SW,221,5.0,12.0,47,0.00,,,0.00,meteohub,2013-03-11 15:44:00,
2013-03-11 11:49:00,55.6,35.6,29.84,South,170,1.0,12.0,47,0.00,,,0.00,meteohub,2013-03-11 15:49:00,
2013-03-11 11:54:00,55.6,35.1,29.83,SSW,208,4.0,14.0,46,0.00,,,0.00,meteohub,2013-03-11 15:54:00,
2013-03-11 11:59:00,55.8,35.8,29.82,SSW,199,4.0,14.0,47,0.00,,,0.00,meteohub,2013-03-11 15:59:00,
2013-03-11 12:04:00,55.8,35.2,29.81,South,177,5.0,14.0,46,0.00,,,0.00,meteohub,2013-03-11 16:04:00,
2013-03-11 12:09:00,55.8,35.2,29.81,SSW,198,5.0,10.0,46,0.00,,,0.00,meteohub,2013-03-11 16:09:00,
2013-03-11 12:15:00,55.9,36.0,29.80,SSW,211,0.0,10.0,47,0.00,,,0.00,meteohub,2013-03-11 16:15:00,
2013-03-11 12:20:00,55.9,35.4,29.80,South,178,2.0,10.0,46,0.00,,,0.00,meteohub,2013-03-11 16:20:00,
2013-03-11 12:25:00,56.1,35.6,29.80,SSW,194,8.0,10.0,46,0.00,,,0.00,meteohub,2013-03-11 16:25:00,
2013-03-11 12:31:00,56.3,35.8,29.80,SSW,207,6.0,10.0,46,0.00,,,0.00,meteohub,2013-03-11 16:31:00,
2013-03-11 12:36:00,56.8,36.3,29.79,SW,223,4.0,11.0,46,0.00,,,0.00,meteohub,2013-03-11 16:36:00,
2013-03-11 12:41:00,56.8,35.8,29.79,SSE,167,8.0,17.0,45,0.00,,,0.00,meteohub,2013-03-11 16:41:00,
2013-03-11 12:47:00,57.2,35.4,29.79,SW,232,6.0,17.0,44,0.00,,,0.00,meteohub,2013-03-11 16:47:00,
2013-03-11 12:52:00,57.4,35.6,29.79,SSE,168,4.0,13.0,44,0.00,,,0.00,meteohub,2013-03-11 16:52:00,
2013-03-11 12:57:00,57.4,35.6,29.78,South,190,5.0,13.0,44,0.00,,,0.00,meteohub,2013-03-11 16:57:00,
2013-03-11 13:02:00,57.6,35.8,29.78,SW,223,11.0,15.0,44,0.00,,,0.00,meteohub,2013-03-11 17:02:00,
2013-03-11 13:08:00,57.0,36.5,29.79,South,177,10.0,15.0,46,0.00,,,0.00,meteohub,2013-03-11 17:08:00,
2013-03-11 13:13:00,56.7,37.2,29.79,SSW,205,6.0,15.0,48,0.00,,,0.00,meteohub,2013-03-11 17:13:00,
2013-03-11 13:18:00,56.5,38.1,29.78,South,180,5.0,14.0,50,0.00,,,0.00,meteohub,2013-03-11 17:18:00,
2013-03-11 13:23:00,56.1,38.3,29.76,South,177,8.0,14.0,51,0.00,,,0.00,meteohub,2013-03-11 17:23:00,
2013-03-11 13:29:00,56.1,38.3,29.78,South,190,6.0,14.0,51,0.00,,,0.00,meteohub,2013-03-11 17:29:00,
2013-03-11 13:34:00,56.3,38.5,29.77,South,188,7.0,13.0,51,0.00,,,0.00,meteohub,2013-03-11 17:34:00,
2013-03-11 13:39:00,56.5,38.7,29.76,South,180,3.0,18.0,51,0.00,,,0.00,meteohub,2013-03-11 17:39:00,
2013-03-11 13:44:00,56.3,39.4,29.76,South,185,4.0,18.0,53,0.00,,,0.00,meteohub,2013-03-11 17:44:00,
2013-03-11 13:49:00,55.9,39.6,29.75,South,186,6.0,18.0,54,0.00,,,0.00,meteohub,2013-03-11 17:49:00,
2013-03-11 13:55:00,55.8,39.9,29.76,SSW,201,6.0,16.0,55,0.00,,,0.00,meteohub,2013-03-11 17:55:00,
2013-03-11 14:00:00,55.4,40.5,29.75,SW,220,7.0,12.0,57,0.00,,,0.00,meteohub,2013-03-11 18:00:00,
2013-03-11 14:05:00,55.0,41.0,29.75,SSW,196,4.0,12.0,59,0.00,,,0.01,meteohub,2013-03-11 18:05:00,
2013-03-11 14:10:00,54.7,40.6,29.74,South,172,5.0,12.0,59,0.01,,,0.01,meteohub,2013-03-11 18:10:00,
2013-03-11 14:15:00,54.3,41.2,29.74,SSW,208,4.0,10.0,61,0.01,,,0.01,meteohub,2013-03-11 18:15:00,
2013-03-11 14:21:00,54.0,41.7,29.74,SSW,198,5.0,9.0,63,0.01,,,0.01,meteohub,2013-03-11 18:21:00,
2013-03-11 14:26:00,53.4,42.3,29.74,South,186,2.0,9.0,66,0.01,,,0.01,meteohub,2013-03-11 18:26:00,
2013-03-11 14:32:00,52.9,43.0,29.74,SSW,212,3.0,8.0,69,0.01,,,0.01,meteohub,2013-03-11 18:32:00,
2013-03-11 14:37:00,52.5,43.0,29.73,South,187,1.0,8.0,70,0.02,,,0.02,meteohub,2013-03-11 18:37:00,
2013-03-11 14:42:00,52.2,43.7,29.73,SSW,203,0.0,6.0,73,0.02,,,0.02,meteohub,2013-03-11 18:42:00,
2013-03-11 14:47:00,51.8,43.7,29.72,South,184,2.0,6.0,74,0.02,,,0.02,meteohub,2013-03-11 18:47:00,
2013-03-11 14:52:00,51.6,43.9,29.71,SSW,207,1.0,6.0,75,0.02,,,0.02,meteohub,2013-03-11 18:52:00,
2013-03-11 14:58:00,51.6,43.5,29.70,South,169,5.0,6.0,74,0.02,,,0.02,meteohub,2013-03-11 18:58:00,
2013-03-11 15:03:00,52.3,42.1,29.70,SW,217,8.0,8.0,68,0.01,,,0.02,meteohub,2013-03-11 19:03:00,
2013-03-11 15:08:00,53.8,41.9,29.70,South,173,9.0,11.0,64,0.02,,,0.03,meteohub,2013-03-11 19:08:00,
2013-03-11 15:13:00,54.7,41.5,29.70,SW,217,10.0,12.0,61,0.02,,,0.03,meteohub,2013-03-11 19:13:00,
2013-03-11 15:18:00,55.6,41.0,29.69,SSW,207,9.0,12.0,58,0.02,,,0.03,meteohub,2013-03-11 19:18:00,
2013-03-11 15:24:00,56.1,40.6,29.69,South,186,18.0,18.0,56,0.02,,,0.03,meteohub,2013-03-11 19:24:00,
2013-03-11 15:29:00,56.5,41.0,29.69,SW,219,3.0,20.0,56,0.02,,,0.03,meteohub,2013-03-11 19:29:00,
2013-03-11 15:34:00,56.3,42.1,29.69,South,176,9.0,23.0,59,0.01,,,0.03,meteohub,2013-03-11 19:34:00,
2013-03-11 15:39:00,55.2,43.3,29.69,SSW,207,12.0,23.0,64,0.01,,,0.03,meteohub,2013-03-11 19:39:00,
2013-03-11 15:44:00,54.7,43.9,29.69,SSW,211,8.0,22.0,67,0.01,,,0.03,meteohub,2013-03-11 19:44:00,
2013-03-11 15:50:00,54.7,43.5,29.68,South,187,3.0,22.0,66,0.01,,,0.03,meteohub,2013-03-11 19:50:00,
2013-03-11 15:55:00,54.9,43.7,29.68,South,186,7.0,19.0,66,0.01,,,0.03,meteohub,2013-03-11 19:55:00,
2013-03-11 16:00:00,55.0,43.5,29.68,SSW,206,16.0,16.0,65,0.01,,,0.03,meteohub,2013-03-11 20:00:00,
2013-03-11 16:05:00,55.2,43.7,29.68,SSW,196,9.0,17.0,65,0.00,,,0.03,meteohub,2013-03-11 20:05:00,
2013-03-11 16:11:00,55.0,44.2,29.68,South,190,7.0,17.0,67,0.00,,,0.03,meteohub,2013-03-11 20:11:00,
2013-03-11 16:16:00,55.0,44.6,29.68,WSW,256,16.0,18.0,68,0.00,,,0.03,meteohub,2013-03-11 20:16:00,
2013-03-11 16:22:00,54.9,45.3,29.67,South,189,9.0,19.0,70,0.01,,,0.04,meteohub,2013-03-11 20:22:00,
2013-03-11 16:27:00,54.3,45.9,29.67,SSW,192,13.0,19.0,73,0.01,,,0.04,meteohub,2013-03-11 20:27:00,
2013-03-11 16:32:00,54.1,46.0,29.67,SSE,167,8.0,21.0,74,0.01,,,0.04,meteohub,2013-03-11 20:32:00,
2013-03-11 16:37:00,53.6,46.6,29.66,South,170,4.0,21.0,77,0.02,,,0.04,meteohub,2013-03-11 20:37:00,
2013-03-11 16:42:00,53.1,46.4,29.66,SW,232,9.0,17.0,78,0.02,,,0.05,meteohub,2013-03-11 20:42:00,
2013-03-11 16:47:00,52.9,46.9,29.65,SSW,192,3.0,17.0,80,0.02,,,0.05,meteohub,2013-03-11 20:47:00,
2013-03-11 16:52:00,52.7,46.8,29.65,SSW,201,10.0,14.0,80,0.02,,,0.05,meteohub,2013-03-11 20:52:00,
2013-03-11 16:57:00,52.9,46.9,29.65,SSW,196,10.0,16.0,80,0.03,,,0.06,meteohub,2013-03-11 20:57:00,
2013-03-11 17:03:00,52.9,46.9,29.65,SSW,209,5.0,16.0,80,0.03,,,0.06,meteohub,2013-03-11 21:03:00,
2013-03-11 17:08:00,52.9,47.3,29.64,SW,219,5.0,16.0,81,0.03,,,0.06,meteohub,2013-03-11 21:08:00,
2013-03-11 17:13:00,53.1,47.3,29.64,SSW,206,8.0,16.0,81,0.03,,,0.06,meteohub,2013-03-11 21:13:00,
2013-03-11 17:18:00,53.1,47.3,29.64,SSW,198,7.0,16.0,81,0.03,,,0.06,meteohub,2013-03-11 21:18:00,
2013-03-11 17:23:00,53.2,47.5,29.64,South,190,4.0,16.0,81,0.02,,,0.06,meteohub,2013-03-11 21:23:00,
2013-03-11 17:28:00,53.2,47.5,29.64,SSW,205,8.0,15.0,81,0.02,,,0.06,meteohub,2013-03-11 21:28:00,
2013-03-11 17:34:00,53.1,47.7,29.64,South,180,5.0,13.0,82,0.03,,,0.07,meteohub,2013-03-11 21:34:00,
2013-03-11 17:39:00,53.1,47.7,29.63,South,182,6.0,13.0,82,0.02,,,0.07,meteohub,2013-03-11 21:39:00,
2013-03-11 17:44:00,53.1,47.3,29.62,SSE,156,10.0,14.0,81,0.02,,,0.07,meteohub,2013-03-11 21:44:00,
2013-03-11 17:50:00,53.1,47.3,29.62,SSW,198,8.0,14.0,81,0.02,,,0.07,meteohub,2013-03-11 21:50:00,
2013-03-11 17:55:00,52.9,47.5,29.62,SE,138,2.0,14.0,82,0.01,,,0.08,meteohub,2013-03-11 21:55:00,
2013-03-11 18:01:00,52.9,47.5,29.62,SSW,194,5.0,14.0,82,0.02,,,0.08,meteohub,2013-03-11 22:01:00,
2013-03-11 18:06:00,53.1,47.7,29.62,SSE,167,7.0,15.0,82,0.02,,,0.08,meteohub,2013-03-11 22:06:00,
2013-03-11 18:12:00,53.2,47.8,29.61,SSW,210,6.0,15.0,82,0.02,,,0.08,meteohub,2013-03-11 22:12:00,
2013-03-11 18:17:00,53.2,47.8,29.62,SSW,203,8.0,15.0,82,0.02,,,0.08,meteohub,2013-03-11 22:17:00,
2013-03-11 18:22:00,53.4,47.7,29.62,SSW,205,10.0,17.0,81,0.02,,,0.08,meteohub,2013-03-11 22:22:00,
2013-03-11 18:27:00,53.4,47.7,29.62,SSW,205,8.0,20.0,81,0.02,,,0.08,meteohub,2013-03-11 22:27:00,
2013-03-11 18:32:00,53.4,48.0,29.62,SW,215,7.0,20.0,82,0.02,,,0.09,meteohub,2013-03-11 22:32:00,
2013-03-11 18:37:00,53.4,48.0,29.61,West,264,6.0,20.0,82,0.02,,,0.09,meteohub,2013-03-11 22:37:00,
2013-03-11 18:42:00,53.2,47.8,29.62,SSW,210,5.0,16.0,82,0.02,,,0.09,meteohub,2013-03-11 22:42:00,
2013-03-11 18:48:00,53.2,47.8,29.62,SSW,208,3.0,16.0,82,0.02,,,0.09,meteohub,2013-03-11 22:48:00,
2013-03-11 18:53:00,53.4,47.7,29.62,South,175,7.0,16.0,81,0.02,,,0.09,meteohub,2013-03-11 22:53:00,
2013-03-11 18:58:00,53.4,47.7,29.63,SW,227,4.0,14.0,81,0.01,,,0.09,meteohub,2013-03-11 22:58:00,
2013-03-11 19:04:00,53.2,47.8,29.62,SE,138,6.0,14.0,82,0.01,,,0.09,meteohub,2013-03-11 23:04:00,
2013-03-11 19:09:00,53.2,47.8,29.63,SW,234,5.0,18.0,82,0.02,,,0.10,meteohub,2013-03-11 23:09:00,
2013-03-11 19:14:00,52.9,47.8,29.63,South,179,7.0,18.0,83,0.02,,,0.10,meteohub,2013-03-11 23:14:00,
2013-03-11 19:19:00,52.7,47.7,29.63,SSW,201,6.0,18.0,83,0.02,,,0.10,meteohub,2013-03-11 23:19:00,
2013-03-11 19:25:00,52.5,47.5,29.63,South,191,4.0,13.0,83,0.03,,,0.11,meteohub,2013-03-11 23:25:00,
2013-03-11 19:30:00,52.3,47.3,29.63,SW,227,6.0,13.0,83,0.03,,,0.11,meteohub,2013-03-11 23:30:00,
2013-03-11 19:35:00,52.3,47.3,29.63,SSW,196,4.0,13.0,83,0.02,,,0.11,meteohub,2013-03-11 23:35:00,
2013-03-11 19:40:00,52.2,47.5,29.63,SSW,209,7.0,13.0,84,0.02,,,0.11,meteohub,2013-03-11 23:40:00,
2013-03-11 19:46:00,52.2,47.8,29.64,South,191,6.0,11.0,85,0.02,,,0.11,meteohub,2013-03-11 23:46:00,
2013-03-11 19:51:00,51.6,47.5,29.64,SSW,195,3.0,12.0,86,0.02,,,0.12,meteohub,2013-03-11 23:51:00,
2013-03-11 19:56:00,51.3,47.5,29.64,SSW,198,2.0,12.0,87,0.04,,,0.13,meteohub,2013-03-11 23:56:00,
2013-03-11 20:01:00,51.1,47.7,29.67,WNW,286,4.0,10.0,88,0.04,,,0.14,meteohub,2013-03-12 00:01:00,
2013-03-11 20:07:00,50.4,47.3,29.68,WNW,293,8.0,8.0,89,0.05,,,0.01,meteohub,2013-03-12 00:07:00,
2013-03-11 20:12:00,49.6,46.2,29.68,WNW,290,1.0,8.0,88,0.08,,,0.04,meteohub,2013-03-12 00:12:00,
2013-03-11 20:17:00,48.9,45.9,29.68,SW,222,5.0,8.0,89,0.12,,,0.06,meteohub,2013-03-12 00:17:00,
2013-03-11 20:22:00,48.4,45.5,29.68,SSW,213,2.0,13.0,90,0.14,,,0.11,meteohub,2013-03-12 00:22:00,
2013-03-11 20:27:00,48.0,45.5,29.67,SSW,211,2.0,13.0,91,0.21,,,0.18,meteohub,2013-03-12 00:27:00,
2013-03-11 20:32:00,47.8,45.7,29.68,SSW,213,3.0,13.0,92,0.26,,,0.21,meteohub,2013-03-12 00:32:00,
2013-03-11 20:37:00,47.7,45.5,29.68,SSW,205,0.0,8.0,92,0.29,,,0.26,meteohub,2013-03-12 00:37:00,
2013-03-11 20:42:00,47.5,45.5,29.68,SSW,205,2.0,6.0,93,0.32,,,0.29,meteohub,2013-03-12 00:42:00,
2013-03-11 20:48:00,47.5,45.5,29.69,SSW,205,1.0,6.0,93,0.33,,,0.30,meteohub,2013-03-12 00:48:00,
2013-03-11 20:53:00,47.5,45.5,29.69,WNW,291,3.0,4.0,93,0.32,,,0.31,meteohub,2013-03-12 00:53:00,
2013-03-11 20:58:00,47.3,45.7,29.70,WNW,291,0.0,4.0,94,0.33,,,0.32,meteohub,2013-03-12 00:58:00,
2013-03-11 21:03:00,47.1,45.5,29.70,WNW,291,0.0,4.0,94,0.33,,,0.33,meteohub,2013-03-12 01:03:00,
2013-03-11 21:08:00,47.1,45.5,29.70,SSW,213,3.0,4.0,94,0.32,,,0.34,meteohub,2013-03-12 01:08:00,
2013-03-11 21:14:00,47.1,45.5,29.70,SSW,213,0.0,4.0,94,0.30,,,0.34,meteohub,2013-03-12 01:14:00,
2013-03-11 21:19:00,47.1,45.5,29.70,SSW,213,1.0,4.0,94,0.26,,,0.35,meteohub,2013-03-12 01:19:00,
2013-03-11 21:24:00,47.1,45.5,29.70,SSW,213,0.0,4.0,94,0.22,,,0.36,meteohub,2013-03-12 01:24:00,
2013-03-11 21:30:00,47.1,45.5,29.71,SSW,213,0.0,1.0,94,0.17,,,0.36,meteohub,2013-03-12 01:30:00,
2013-03-11 21:35:00,46.9,45.5,29.71,SSW,213,0.0,1.0,95,0.14,,,0.37,meteohub,2013-03-12 01:35:00,
2013-03-11 21:40:00,46.8,45.3,29.71,SSW,213,0.0,0.0,95,0.11,,,0.38,meteohub,2013-03-12 01:40:00,
2013-03-11 21:45:00,46.8,45.3,29.72,SSW,213,0.0,0.0,95,0.08,,,0.39,meteohub,2013-03-12 01:45:00,
2013-03-11 21:51:00,46.8,45.3,29.71,SSW,213,1.0,0.0,95,0.08,,,0.40,meteohub,2013-03-12 01:51:00,
2013-03-11 21:56:00,46.8,45.3,29.71,SSW,213,0.0,0.0,95,0.10,,,0.42,meteohub,2013-03-12 01:56:00,
2013-03-11 22:01:00,46.8,45.3,29.72,SSW,213,1.0,2.0,95,0.11,,,0.43,meteohub,2013-03-12 02:01:00,
2013-03-11 22:06:00,46.6,45.1,29.72,SSW,213,0.0,2.0,95,0.11,,,0.45,meteohub,2013-03-12 02:06:00,
2013-03-11 22:12:00,46.6,45.1,29.72,SSW,205,0.0,5.0,95,0.10,,,0.45,meteohub,2013-03-12 02:12:00,
2013-03-11 22:17:00,46.6,45.1,29.73,NNW,336,1.0,5.0,95,0.10,,,0.46,meteohub,2013-03-12 02:17:00,
2013-03-11 22:22:00,46.0,44.6,29.73,WNW,290,1.0,10.0,95,0.11,,,0.47,meteohub,2013-03-12 02:22:00,
2013-03-11 22:27:00,45.1,43.2,29.74,West,265,3.0,10.0,93,0.11,,,0.48,meteohub,2013-03-12 02:27:00,
2013-03-11 22:32:00,44.6,42.6,29.74,North,5,2.0,10.0,93,0.11,,,0.48,meteohub,2013-03-12 02:32:00,
2013-03-11 22:37:00,44.2,42.3,29.74,SW,224,0.0,5.0,93,0.10,,,0.48,meteohub,2013-03-12 02:37:00,
2013-03-11 22:42:00,43.9,41.9,29.74,SW,236,0.0,4.0,93,0.10,,,0.48,meteohub,2013-03-12 02:42:00,
2013-03-11 22:47:00,43.7,41.7,29.74,SW,236,0.0,3.0,93,0.09,,,0.48,meteohub,2013-03-12 02:47:00,
2013-03-11 22:52:00,43.5,41.7,29.75,SW,236,0.0,2.0,93,0.07,,,0.48,meteohub,2013-03-12 02:52:00,
2013-03-11 22:58:00,43.3,41.7,29.75,SW,236,0.0,2.0,94,0.06,,,0.48,meteohub,2013-03-12 02:58:00,
2013-03-11 23:03:00,43.2,41.5,29.75,SW,236,0.0,2.0,94,0.04,,,0.48,meteohub,2013-03-12 03:03:00,
2013-03-11 23:08:00,43.2,41.5,29.75,SW,236,0.0,1.0,94,0.03,,,0.48,meteohub,2013-03-12 03:08:00,
2013-03-11 23:13:00,43.2,41.5,29.75,SW,236,0.0,1.0,94,0.03,,,0.48,meteohub,2013-03-12 03:13:00,
2013-03-11 23:18:00,43.2,41.5,29.76,SW,236,0.0,1.0,94,0.02,,,0.48,meteohub,2013-03-12 03:18:00,
2013-03-11 23:23:00,43.0,41.7,29.76,SW,236,0.0,1.0,95,0.00,,,0.48,meteohub,2013-03-12 03:23:00,
2013-03-11 23:28:00,43.0,41.4,29.76,SW,236,0.0,0.0,94,0.00,,,0.48,meteohub,2013-03-12 03:28:00,
2013-03-11 23:34:00,43.0,41.7,29.76,SW,236,0.0,0.0,95,0.00,,,0.48,meteohub,2013-03-12 03:34:00,
2013-03-11 23:39:00,43.0,41.7,29.76,SW,236,0.0,1.0,95,0.00,,,0.48,meteohub,2013-03-12 03:39:00,
2013-03-11 23:44:00,43.0,41.7,29.77,SW,236,0.0,1.0,95,0.00,,,0.48,meteohub,2013-03-12 03:44:00,
2013-03-11 23:49:00,42.6,41.0,29.76,NW,322,0.0,2.0,94,0.00,,,0.48,meteohub,2013-03-12 03:49:00,
2013-03-11 23:55:00,42.4,40.8,29.76,West,281,1.0,4.0,94,0.00,,,0.48,meteohub,2013-03-12 03:55:00,